createdAt,value
2017-05-19T00:00:04.790Z,65.10
2017-05-19T00:00:26.519Z,65.12
2017-05-19T00:00:48.368Z,65.14
2017-05-19T00:01:10.096Z,65.09
2017-05-19T00:01:31.879Z,64.82
2017-05-19T00:01:53.688Z,65.27
2017-05-19T00:02:15.666Z,65.81
2017-05-19T00:02:37.404Z,66.01
2017-05-19T00:02:59.182Z,65.62
2017-05-19T00:04:06.656Z,67.45
2017-05-19T00:04:28.447Z,68.51
2017-05-19T00:04:50.229Z,69.36
2017-05-19T00:05:12.113Z,69.60
2017-05-19T00:05:33.830Z,69.61
2017-05-19T00:05:55.562Z,69.48
2017-05-19T00:06:17.447Z,69.55
2017-05-19T00:06:39.282Z,70.02
2017-05-19T00:07:01.166Z,70.57
2017-05-19T00:07:22.901Z,70.54
2017-05-19T00:07:44.665Z,70.92
2017-05-19T00:08:06.683Z,73.68
2017-05-19T00:08:28.428Z,73.83
2017-05-19T00:08:50.251Z,74.51
2017-05-19T00:09:12.077Z,75.46
2017-05-19T00:09:33.855Z,75.51
2017-05-19T00:10:36.576Z,77.36
2017-05-19T00:10:58.277Z,77.20
2017-05-19T00:11:20.008Z,77.30
2017-05-19T00:11:41.845Z,76.98
2017-05-19T00:12:03.595Z,76.83
2017-05-19T00:12:25.292Z,76.46
2017-05-19T00:12:47.043Z,76.10
2017-05-19T00:13:08.736Z,75.60
2017-05-19T00:13:30.492Z,75.05
2017-05-19T00:13:52.191Z,74.97
2017-05-19T00:14:13.970Z,74.60
2017-05-19T00:14:35.824Z,74.62
2017-05-19T00:14:57.581Z,74.63
2017-05-19T00:15:19.310Z,74.50
2017-05-19T00:15:41.289Z,74.51
2017-05-19T00:16:03.166Z,74.26
2017-05-19T00:16:24.866Z,74.89
2017-05-19T00:16:46.571Z,74.82
2017-05-19T00:17:08.498Z,74.74
2017-05-19T00:17:30.504Z,74.38
2017-05-19T00:17:52.219Z,74.31
2017-05-19T00:18:13.926Z,74.25
2017-05-19T00:18:35.686Z,74.11
2017-05-19T00:18:57.412Z,73.90
2017-05-19T00:19:19.637Z,74.11
2017-05-19T00:19:44.277Z,74.08
2017-05-19T00:20:06.102Z,73.90
2017-05-19T00:20:27.858Z,74.20
2017-05-19T00:20:49.597Z,75.00
2017-05-19T00:21:11.351Z,75.20
2017-05-19T00:21:33.081Z,75.68
2017-05-19T00:21:54.895Z,75.60
2017-05-19T00:22:16.896Z,75.52
2017-05-19T00:22:38.596Z,75.38
2017-05-19T00:23:00.582Z,74.99
2017-05-19T00:23:22.402Z,74.57
2017-05-19T00:23:44.216Z,74.24
2017-05-19T00:24:06.132Z,74.26
2017-05-19T00:24:28.063Z,74.42
2017-05-19T00:24:54.723Z,74.92
2017-05-19T00:25:16.590Z,75.12
2017-05-19T00:25:38.397Z,74.85
2017-05-19T00:26:00.186Z,74.71
2017-05-19T00:26:21.898Z,74.31
2017-05-19T00:26:43.657Z,74.28
2017-05-19T00:27:05.424Z,74.16
2017-05-19T00:27:27.346Z,74.47
2017-05-19T00:27:52.024Z,74.70
2017-05-19T00:28:13.875Z,74.55
2017-05-19T00:28:35.654Z,74.36
2017-05-19T00:28:57.454Z,74.12
2017-05-19T00:29:19.293Z,74.21
2017-05-19T00:29:40.996Z,74.41
2017-05-19T00:30:02.732Z,74.64
2017-05-19T00:30:24.470Z,75.15
2017-05-19T00:30:46.244Z,74.84
2017-05-19T00:31:10.642Z,74.91
2017-05-19T00:31:32.518Z,75.28
2017-05-19T00:31:54.307Z,75.58
2017-05-19T00:32:16.149Z,75.73
2017-05-19T00:32:37.975Z,75.77
2017-05-19T00:32:59.753Z,75.51
2017-05-19T00:33:21.476Z,75.49
2017-05-19T00:33:43.390Z,75.22
2017-05-19T00:34:05.178Z,74.95
2017-05-19T00:34:26.958Z,74.57
2017-05-19T00:34:48.696Z,74.26
2017-05-19T00:35:10.429Z,74.23
2017-05-19T00:35:32.316Z,74.44
2017-05-19T00:35:54.002Z,74.22
2017-05-19T00:36:15.766Z,74.22
2017-05-19T00:36:49.794Z,73.92
2017-05-19T00:37:11.558Z,73.86
2017-05-19T00:37:33.349Z,73.95
2017-05-19T00:37:55.131Z,73.73
2017-05-19T00:38:16.989Z,73.60
2017-05-19T00:38:38.743Z,73.37
2017-05-19T00:39:00.578Z,73.93
2017-05-19T00:39:22.290Z,73.98
2017-05-19T00:39:43.987Z,73.87
2017-05-19T00:40:05.723Z,73.89
2017-05-19T00:40:27.452Z,73.90
2017-05-19T00:40:49.157Z,74.19
2017-05-19T00:41:10.937Z,74.68
2017-05-19T00:41:32.637Z,75.21
2017-05-19T00:41:54.749Z,75.41
2017-05-19T00:42:16.512Z,75.49
2017-05-19T00:42:38.261Z,76.01
2017-05-19T00:43:00.010Z,76.47
2017-05-19T00:43:21.783Z,76.27
2017-05-19T00:43:43.721Z,76.49
2017-05-19T00:44:05.845Z,76.82
2017-05-19T00:44:27.693Z,77.22
2017-05-19T00:44:49.485Z,77.14
2017-05-19T00:45:11.212Z,76.79
2017-05-19T00:45:37.734Z,77.26
2017-05-19T00:45:59.472Z,76.56
2017-05-19T00:46:21.418Z,76.68
2017-05-19T00:46:43.368Z,76.31
2017-05-19T00:47:05.098Z,76.33
2017-05-19T00:47:26.985Z,76.03
2017-05-19T00:47:48.805Z,76.15
2017-05-19T00:48:10.502Z,75.82
2017-05-19T00:48:32.319Z,75.45
2017-05-19T00:48:54.051Z,75.88
2017-05-19T00:49:16.447Z,76.26
2017-05-19T00:50:18.962Z,76.11
2017-05-19T00:50:40.848Z,75.84
2017-05-19T00:51:05.406Z,75.72
2017-05-19T00:51:27.146Z,75.80
2017-05-19T00:51:48.910Z,75.78
2017-05-19T00:52:10.619Z,76.04
2017-05-19T00:52:32.431Z,76.18
2017-05-19T00:53:21.021Z,75.63
2017-05-19T00:53:42.787Z,75.10
2017-05-19T00:54:04.553Z,75.14
2017-05-19T00:54:26.280Z,75.32
2017-05-19T00:54:48.544Z,75.06
2017-05-19T00:55:10.360Z,75.16
2017-05-19T00:55:32.389Z,75.61
2017-05-19T00:55:54.144Z,75.67
2017-05-19T00:56:15.901Z,76.12
2017-05-19T00:56:37.955Z,76.40
2017-05-19T00:56:59.733Z,75.96
2017-05-19T00:57:21.464Z,75.83
2017-05-19T00:57:43.352Z,75.90
2017-05-19T00:58:05.147Z,75.75
2017-05-19T00:58:26.851Z,75.84
2017-05-19T00:58:48.572Z,75.92
2017-05-19T00:59:10.375Z,75.86
2017-05-19T00:59:32.085Z,75.53
2017-05-19T00:59:58.581Z,75.49
2017-05-19T01:00:20.293Z,75.43
2017-05-19T01:00:42.024Z,75.41
2017-05-19T01:01:04.751Z,74.93
2017-05-19T01:02:02.653Z,73.70
2017-05-19T01:02:27.269Z,74.06
2017-05-19T01:02:49.174Z,74.97
2017-05-19T01:03:11.364Z,75.47
2017-05-19T01:03:36.302Z,75.66
2017-05-19T01:03:58.019Z,75.00
2017-05-19T01:04:19.842Z,74.80
2017-05-19T01:04:44.237Z,75.82
2017-05-19T01:05:08.563Z,76.37
2017-05-19T01:06:07.182Z,77.63
2017-05-19T01:07:00.170Z,77.71
2017-05-19T01:07:22.185Z,78.48
2017-05-19T01:07:44.066Z,79.00
2017-05-19T01:08:05.973Z,79.13
2017-05-19T01:08:27.830Z,78.38
2017-05-19T01:08:49.772Z,79.53
2017-05-19T01:09:11.579Z,79.17
2017-05-19T01:09:33.381Z,79.12
2017-05-19T01:09:57.813Z,78.67
2017-05-19T01:10:19.870Z,78.81
2017-05-19T01:10:41.595Z,79.52
2017-05-19T01:11:03.362Z,79.16
2017-05-19T01:11:25.170Z,79.61
2017-05-19T01:11:49.566Z,79.82
2017-05-19T01:12:16.092Z,79.18
2017-05-19T01:12:47.382Z,79.07
2017-05-19T01:13:09.133Z,79.32
2017-05-19T01:13:30.946Z,78.64
2017-05-19T01:14:24.017Z,79.31
2017-05-19T01:14:45.932Z,79.37
2017-05-19T01:15:07.749Z,79.40
2017-05-19T01:15:29.569Z,78.20
2017-05-19T01:15:51.331Z,79.39
2017-05-19T01:16:13.064Z,79.59
2017-05-19T01:16:37.029Z,80.27
2017-05-19T01:16:58.841Z,80.47
2017-05-19T01:17:20.563Z,79.64
2017-05-19T01:17:42.388Z,79.27
2017-05-19T01:18:04.150Z,78.97
2017-05-19T01:18:25.869Z,79.41
2017-05-19T01:19:28.450Z,79.67
2017-05-19T01:19:50.157Z,79.40
2017-05-19T01:20:11.928Z,79.57
2017-05-19T01:20:33.888Z,79.27
2017-05-19T01:20:55.639Z,79.18
2017-05-19T01:21:17.464Z,79.52
2017-05-19T01:21:39.266Z,79.23
2017-05-19T01:22:05.839Z,79.38
2017-05-19T01:22:27.573Z,79.42
2017-05-19T01:22:49.434Z,79.68
2017-05-19T01:23:15.953Z,79.77
2017-05-19T01:23:37.699Z,79.82
2017-05-19T01:23:59.397Z,79.86
2017-05-19T01:24:21.152Z,79.97
2017-05-19T01:24:42.950Z,79.77
2017-05-19T01:25:04.674Z,79.83
2017-05-19T01:25:31.310Z,80.24
2017-05-19T01:25:57.857Z,80.71
2017-05-19T01:26:19.609Z,81.33
2017-05-19T01:26:41.341Z,81.84
2017-05-19T01:27:07.858Z,82.25
2017-05-19T01:27:29.630Z,82.85
2017-05-19T01:27:51.346Z,82.45
2017-05-19T01:28:13.171Z,82.58
2017-05-19T01:28:34.959Z,83.09
2017-05-19T01:28:56.730Z,83.16
2017-05-19T01:29:18.447Z,83.12
2017-05-19T01:29:40.230Z,82.43
2017-05-19T01:30:02.116Z,82.89
2017-05-19T01:30:23.851Z,82.84
2017-05-19T01:30:45.815Z,83.02
2017-05-19T01:31:07.554Z,82.54
2017-05-19T01:31:29.320Z,82.26
2017-05-19T01:31:51.241Z,82.17
2017-05-19T01:32:13.064Z,82.01
2017-05-19T01:32:34.832Z,82.22
2017-05-19T01:32:56.541Z,82.48
2017-05-19T01:33:18.261Z,82.23
2017-05-19T01:33:40.003Z,82.32
2017-05-19T01:34:01.795Z,82.28
2017-05-19T01:34:23.632Z,81.88
2017-05-19T01:34:45.451Z,82.15
2017-05-19T01:35:07.157Z,81.90
2017-05-19T01:35:28.990Z,81.18
2017-05-19T01:35:50.762Z,81.55
2017-05-19T01:36:12.550Z,81.69
2017-05-19T01:36:34.251Z,81.76
2017-05-19T01:36:55.954Z,81.56
2017-05-19T01:37:17.695Z,81.08
2017-05-19T01:37:39.407Z,80.97
2017-05-19T01:38:01.105Z,80.83
2017-05-19T01:38:22.896Z,81.11
2017-05-19T01:38:44.660Z,80.99
2017-05-19T01:39:06.403Z,80.82
2017-05-19T01:39:28.108Z,81.25
2017-05-19T01:39:49.837Z,81.30
2017-05-19T01:40:11.578Z,81.38
2017-05-19T01:40:33.343Z,81.41
2017-05-19T01:40:55.156Z,81.85
2017-05-19T01:41:16.968Z,82.18
2017-05-19T01:41:38.696Z,82.05
2017-05-19T01:42:00.412Z,82.49
2017-05-19T01:42:22.137Z,82.49
2017-05-19T01:42:43.951Z,82.09
2017-05-19T01:43:05.658Z,81.90
2017-05-19T01:43:27.407Z,81.98
2017-05-19T01:43:49.141Z,81.84
2017-05-19T01:44:10.901Z,81.60
2017-05-19T01:44:32.730Z,81.35
2017-05-19T01:44:54.476Z,81.29
2017-05-19T01:45:42.791Z,81.57
2017-05-19T01:46:04.567Z,81.83
2017-05-19T01:46:26.471Z,81.91
2017-05-19T01:46:48.334Z,82.48
2017-05-19T01:47:10.115Z,82.09
2017-05-19T01:47:31.889Z,82.11
2017-05-19T01:47:53.595Z,81.81
2017-05-19T01:48:15.423Z,81.61
2017-05-19T01:48:37.235Z,81.80
2017-05-19T01:48:59.095Z,81.84
2017-05-19T01:49:20.851Z,81.65
2017-05-19T01:49:42.585Z,81.21
2017-05-19T01:50:04.383Z,80.75
2017-05-19T01:50:57.563Z,80.82
2017-05-19T01:51:19.344Z,80.38
2017-05-19T01:51:41.076Z,80.78
2017-05-19T01:52:02.774Z,80.73
2017-05-19T01:52:24.583Z,80.22
2017-05-19T01:52:46.495Z,80.52
2017-05-19T01:53:08.300Z,80.64
2017-05-19T01:53:29.996Z,80.35
2017-05-19T01:53:51.789Z,79.98
2017-05-19T01:54:13.654Z,80.01
2017-05-19T01:54:35.445Z,79.86
2017-05-19T01:54:57.182Z,79.66
2017-05-19T01:55:18.960Z,79.86
2017-05-19T01:55:40.709Z,79.79
2017-05-19T01:56:02.532Z,79.98
2017-05-19T01:56:24.257Z,80.29
2017-05-19T01:56:45.949Z,80.43
2017-05-19T01:57:07.651Z,80.84
2017-05-19T01:57:29.363Z,80.71
2017-05-19T01:57:51.191Z,80.47
2017-05-19T01:58:12.898Z,80.32
2017-05-19T01:58:34.726Z,80.27
2017-05-19T01:58:56.549Z,80.14
2017-05-19T01:59:18.311Z,79.60
2017-05-19T01:59:40.069Z,79.68
2017-05-19T02:00:02.141Z,79.81
2017-05-19T02:00:23.858Z,80.54
2017-05-19T02:00:45.665Z,80.89
2017-05-19T02:01:07.402Z,80.97
2017-05-19T02:01:29.136Z,81.26
2017-05-19T02:01:50.979Z,81.35
2017-05-19T02:02:12.674Z,81.36
2017-05-19T02:02:34.430Z,81.01
2017-05-19T02:02:56.306Z,81.54
2017-05-19T02:03:27.620Z,82.13
2017-05-19T02:03:49.521Z,82.13
2017-05-19T02:04:11.308Z,82.43
2017-05-19T02:04:33.162Z,82.28
2017-05-19T02:04:54.893Z,82.69
2017-05-19T02:05:53.392Z,82.96
2017-05-19T02:06:15.166Z,83.12
2017-05-19T02:06:36.879Z,82.74
2017-05-19T02:06:58.613Z,82.73
2017-05-19T02:07:25.125Z,82.37
2017-05-19T02:07:46.912Z,82.10
2017-05-19T02:08:08.711Z,82.43
2017-05-19T02:08:30.518Z,82.16
2017-05-19T02:08:52.330Z,82.50
2017-05-19T02:09:50.782Z,82.68
2017-05-19T02:10:12.579Z,82.53
2017-05-19T02:10:34.421Z,82.29
2017-05-19T02:10:56.236Z,82.34
2017-05-19T02:11:18.186Z,81.95
2017-05-19T02:11:40.047Z,81.78
2017-05-19T02:12:01.958Z,81.68
2017-05-19T02:12:23.724Z,81.95
2017-05-19T02:12:45.477Z,82.61
2017-05-19T02:13:07.307Z,82.72
2017-05-19T02:13:29.169Z,83.07
2017-05-19T02:13:51.071Z,82.77
2017-05-19T02:14:12.929Z,82.59
2017-05-19T02:14:37.753Z,82.04
2017-05-19T02:14:59.565Z,82.28
2017-05-19T02:15:21.307Z,83.09
2017-05-19T02:15:43.038Z,82.88
2017-05-19T02:16:04.758Z,82.86
2017-05-19T02:16:26.478Z,82.37
2017-05-19T02:16:48.228Z,82.32
2017-05-19T02:17:09.982Z,82.68
2017-05-19T02:17:31.960Z,82.67
2017-05-19T02:17:53.823Z,82.75
2017-05-19T02:18:15.680Z,82.40
2017-05-19T02:18:37.425Z,82.03
2017-05-19T02:18:59.121Z,81.95
2017-05-19T02:19:20.838Z,82.14
2017-05-19T02:19:42.608Z,82.24
2017-05-19T02:20:04.387Z,82.62
2017-05-19T02:20:26.229Z,82.14
2017-05-19T02:20:47.963Z,82.38
2017-05-19T02:21:10.001Z,82.41
2017-05-19T02:21:31.861Z,82.41
2017-05-19T02:21:53.685Z,82.81
2017-05-19T02:22:15.492Z,83.06
2017-05-19T02:22:37.513Z,82.78
2017-05-19T02:22:59.419Z,82.80
2017-05-19T02:24:07.874Z,82.42
2017-05-19T02:24:39.387Z,82.19
2017-05-19T02:25:06.594Z,81.91
2017-05-19T02:26:20.451Z,82.05
2017-05-19T02:26:49.782Z,82.00
2017-05-19T02:27:12.273Z,82.05
2017-05-19T02:27:34.281Z,82.16
2017-05-19T02:28:54.276Z,82.63
2017-05-19T02:29:18.941Z,82.65
2017-05-19T02:29:40.664Z,82.88
2017-05-19T02:30:05.150Z,82.56
2017-05-19T02:30:34.125Z,82.11
2017-05-19T02:31:03.599Z,82.46
2017-05-19T02:31:37.747Z,82.72
2017-05-19T02:32:00.353Z,82.76
2017-05-19T02:32:22.415Z,82.69
2017-05-19T02:32:47.251Z,82.87
2017-05-19T02:34:55.582Z,83.04
2017-05-19T02:35:17.413Z,83.02
2017-05-19T02:35:39.253Z,83.10
2017-05-19T02:36:01.489Z,83.00
2017-05-19T02:36:23.234Z,83.15
2017-05-19T02:37:22.447Z,83.03
2017-05-19T02:37:49.360Z,82.92
2017-05-19T02:38:17.416Z,82.76
2017-05-19T02:38:47.034Z,82.67
2017-05-19T02:39:18.671Z,82.50
2017-05-19T02:39:46.290Z,82.57
2017-05-19T02:40:09.075Z,82.69
2017-05-19T02:40:35.713Z,82.44
2017-05-19T02:42:45.656Z,81.77
2017-05-19T02:43:07.360Z,81.87
2017-05-19T02:43:58.726Z,81.41
2017-05-19T02:44:23.661Z,81.13
2017-05-19T02:46:00.850Z,80.78
2017-05-19T02:48:11.771Z,81.02
2017-05-19T02:49:14.426Z,80.98
2017-05-19T02:49:48.458Z,80.92
2017-05-19T02:50:19.909Z,81.20
2017-05-19T02:51:20.789Z,81.22
2017-05-19T02:51:49.801Z,81.17
2017-05-19T02:52:15.169Z,81.26
2017-05-19T02:54:02.261Z,81.15
2017-05-19T02:54:24.015Z,81.55
2017-05-19T02:55:53.227Z,81.33
2017-05-19T02:56:19.804Z,80.95
2017-05-19T02:56:44.383Z,81.22
2017-05-19T02:57:11.091Z,81.92
2017-05-19T02:57:42.356Z,82.08
2017-05-19T02:58:08.846Z,81.79
2017-05-19T02:58:35.350Z,81.95
2017-05-19T02:58:57.210Z,82.07
2017-05-19T02:59:26.302Z,81.87
2017-05-19T02:59:52.802Z,81.93
2017-05-19T03:00:22.855Z,82.03
2017-05-19T03:00:47.732Z,81.73
2017-05-19T03:01:15.298Z,81.69
2017-05-19T03:01:41.946Z,81.62
2017-05-19T03:02:06.273Z,81.60
2017-05-19T03:02:28.426Z,81.50
2017-05-19T03:02:57.496Z,80.94
2017-05-19T03:03:55.330Z,80.79
2017-05-19T03:04:21.632Z,80.72
2017-05-19T03:04:55.761Z,80.98
2017-05-19T03:05:17.647Z,80.87
2017-05-19T03:06:14.293Z,80.60
2017-05-19T03:07:23.904Z,80.58
2017-05-19T03:07:55.192Z,80.91
2017-05-19T03:09:07.415Z,80.44
2017-05-19T03:09:36.783Z,80.67
2017-05-19T03:10:45.092Z,81.12
2017-05-19T03:11:07.150Z,81.36
2017-05-19T03:11:33.675Z,81.47
2017-05-19T03:11:58.556Z,81.32
2017-05-19T03:12:28.003Z,81.30
2017-05-19T03:12:55.528Z,81.54
2017-05-19T03:13:26.945Z,81.50
2017-05-19T03:13:49.036Z,81.20
2017-05-19T03:14:11.584Z,81.35
2017-05-19T03:16:35.147Z,80.77
2017-05-19T03:18:17.625Z,81.33
2017-05-19T03:18:39.822Z,81.32
2017-05-19T03:19:06.471Z,81.20
2017-05-19T03:19:32.613Z,81.11
2017-05-19T03:19:59.278Z,81.19
2017-05-19T03:20:35.318Z,80.87
2017-05-19T03:21:08.060Z,81.20
2017-05-19T03:21:39.343Z,81.34
2017-05-19T03:22:13.270Z,81.59
2017-05-19T03:23:09.032Z,81.47
2017-05-19T03:23:35.936Z,81.28
2017-05-19T03:24:08.032Z,81.06
2017-05-19T03:24:34.537Z,81.01
2017-05-19T03:24:56.244Z,81.04
2017-05-19T03:25:22.732Z,80.88
2017-05-19T03:25:48.574Z,80.89
2017-05-19T03:26:51.632Z,80.70
2017-05-19T03:27:13.351Z,80.56
2017-05-19T03:27:35.083Z,80.98
2017-05-19T03:28:00.047Z,81.04
2017-05-19T03:28:26.747Z,80.97
2017-05-19T03:28:48.751Z,80.95
2017-05-19T03:29:13.683Z,81.11
2017-05-19T03:29:42.775Z,80.96
2017-05-19T03:30:09.318Z,80.81
2017-05-19T03:31:05.338Z,80.30
2017-05-19T03:31:30.070Z,80.19
2017-05-19T03:32:03.587Z,80.51
2017-05-19T03:32:30.445Z,80.42
2017-05-19T03:32:57.107Z,80.33
2017-05-19T03:34:07.867Z,80.41
2017-05-19T03:34:34.355Z,80.53
2017-05-19T03:34:56.060Z,80.34
2017-05-19T03:35:17.782Z,80.04
2017-05-19T03:35:39.481Z,80.11
2017-05-19T03:36:01.294Z,80.13
2017-05-19T03:36:23.145Z,80.41
2017-05-19T03:36:47.925Z,80.29
2017-05-19T03:37:09.773Z,80.54
2017-05-19T03:37:31.674Z,80.51
2017-05-19T03:37:53.561Z,80.37
2017-05-19T03:38:15.462Z,80.23
2017-05-19T03:38:37.226Z,80.04
2017-05-19T03:38:59.141Z,80.11
2017-05-19T03:39:21.079Z,80.56
2017-05-19T03:39:43.058Z,80.69
2017-05-19T03:40:04.964Z,80.33
2017-05-19T03:40:26.961Z,80.19
2017-05-19T03:40:48.703Z,79.88
2017-05-19T03:41:10.626Z,79.80
2017-05-19T03:41:32.596Z,80.00
2017-05-19T03:41:54.625Z,80.48
2017-05-19T03:42:16.671Z,80.38
2017-05-19T03:42:38.482Z,80.49
2017-05-19T03:43:05.010Z,80.99
2017-05-19T03:43:29.942Z,80.89
2017-05-19T03:43:52.235Z,80.93
2017-05-19T03:44:14.267Z,80.67
2017-05-19T03:44:36.059Z,80.77
2017-05-19T03:44:58.129Z,81.03
2017-05-19T03:45:19.934Z,81.34
2017-05-19T03:45:41.650Z,81.58
2017-05-19T03:46:03.554Z,81.50
2017-05-19T03:46:27.613Z,81.09
2017-05-19T03:47:30.224Z,80.94
2017-05-19T03:47:51.973Z,81.04
2017-05-19T03:48:13.876Z,81.20
2017-05-19T03:48:35.945Z,81.17
2017-05-19T03:49:02.514Z,80.99
2017-05-19T03:49:24.316Z,81.35
2017-05-19T03:49:46.078Z,81.38
2017-05-19T03:50:07.922Z,81.10
2017-05-19T03:50:29.878Z,80.96
2017-05-19T03:50:51.638Z,80.83
2017-05-19T03:51:16.346Z,80.62
2017-05-19T03:51:38.177Z,80.66
2017-05-19T03:52:00.175Z,80.66
2017-05-19T03:52:22.135Z,80.78
2017-05-19T03:52:46.682Z,80.85
2017-05-19T03:53:08.680Z,80.71
2017-05-19T03:53:30.681Z,80.49
2017-05-19T03:53:52.592Z,80.36
2017-05-19T03:54:14.313Z,80.53
2017-05-19T03:55:02.677Z,80.74
2017-05-19T03:55:24.430Z,80.61
2017-05-19T03:55:46.132Z,80.41
2017-05-19T03:56:17.487Z,80.12
2017-05-19T03:56:39.446Z,80.02
2017-05-19T03:57:01.288Z,80.00
2017-05-19T03:57:23.053Z,79.77
2017-05-19T03:57:44.803Z,79.60
2017-05-19T03:58:06.624Z,79.59
2017-05-19T03:58:28.325Z,79.35
2017-05-19T03:58:50.135Z,79.19
2017-05-19T03:59:11.901Z,79.31
2017-05-19T03:59:33.653Z,79.34
2017-05-19T03:59:55.429Z,79.42
2017-05-19T04:00:17.407Z,79.37
2017-05-19T04:00:39.145Z,79.62
2017-05-19T04:01:00.920Z,79.58
2017-05-19T04:01:32.169Z,79.48
2017-05-19T04:01:54.106Z,79.53
2017-05-19T04:02:16.002Z,79.64
2017-05-19T04:02:37.918Z,79.66
2017-05-19T04:03:04.668Z,79.48
2017-05-19T04:03:26.661Z,79.57
2017-05-19T04:03:48.646Z,79.55
2017-05-19T04:04:10.584Z,79.74
2017-05-19T04:04:32.473Z,79.68
2017-05-19T04:04:54.397Z,79.62
2017-05-19T04:05:16.379Z,79.48
2017-05-19T04:05:38.223Z,79.45
2017-05-19T04:05:59.948Z,79.33
2017-05-19T04:06:21.787Z,79.60
2017-05-19T04:06:43.611Z,79.30
2017-05-19T04:07:05.377Z,79.15
2017-05-19T04:07:27.321Z,79.23
2017-05-19T04:07:49.613Z,79.29
2017-05-19T04:08:11.379Z,79.24
2017-05-19T04:08:33.242Z,79.08
2017-05-19T04:08:55.132Z,78.95
2017-05-19T04:09:17.112Z,79.14
2017-05-19T04:09:38.974Z,79.18
2017-05-19T04:10:00.767Z,79.28
2017-05-19T04:10:22.592Z,79.23
2017-05-19T04:10:44.374Z,79.20
2017-05-19T04:11:06.123Z,79.11
2017-05-19T04:11:27.904Z,78.97
2017-05-19T04:11:49.792Z,78.90
2017-05-19T04:12:11.827Z,78.97
2017-05-19T04:12:33.698Z,78.95
2017-05-19T04:12:55.597Z,78.91
2017-05-19T04:13:17.449Z,78.84
2017-05-19T04:13:39.380Z,78.83
2017-05-19T04:14:01.229Z,78.82
2017-05-19T04:14:23.152Z,79.06
2017-05-19T04:14:45.147Z,79.24
2017-05-19T04:15:07.285Z,79.23
2017-05-19T04:15:29.109Z,79.16
2017-05-19T04:15:51.071Z,79.48
2017-05-19T04:16:12.873Z,79.60
2017-05-19T04:16:37.667Z,79.33
2017-05-19T04:16:59.432Z,78.95
2017-05-19T04:17:23.867Z,79.26
2017-05-19T04:17:45.605Z,79.11
2017-05-19T04:18:07.426Z,79.13
2017-05-19T04:18:29.306Z,79.24
2017-05-19T04:18:51.219Z,79.08
2017-05-19T04:19:13.011Z,79.21
2017-05-19T04:19:34.872Z,79.12
2017-05-19T04:19:56.766Z,79.30
2017-05-19T04:20:21.185Z,79.54
2017-05-19T04:20:43.171Z,79.40
2017-05-19T04:21:04.924Z,79.35
2017-05-19T04:21:26.638Z,79.30
2017-05-19T04:21:48.506Z,79.15
2017-05-19T04:22:10.232Z,79.21
2017-05-19T04:23:15.736Z,79.69
2017-05-19T04:23:37.607Z,80.16
2017-05-19T04:23:59.338Z,80.33
2017-05-19T04:24:21.133Z,80.62
2017-05-19T04:24:52.445Z,80.58
2017-05-19T04:25:14.181Z,80.40
2017-05-19T04:25:35.938Z,80.28
2017-05-19T04:25:57.672Z,80.67
2017-05-19T04:26:19.668Z,80.86
2017-05-19T04:26:41.536Z,80.81
2017-05-19T04:27:03.353Z,80.84
2017-05-19T04:27:25.312Z,80.93
2017-05-19T04:27:47.097Z,80.90
2017-05-19T04:28:08.891Z,80.64
2017-05-19T04:28:30.693Z,80.63
2017-05-19T04:28:52.432Z,80.83
2017-05-19T04:29:14.191Z,81.06
2017-05-19T04:29:35.980Z,81.17
2017-05-19T04:29:57.727Z,81.55
2017-05-19T04:30:19.512Z,81.63
2017-05-19T04:30:41.351Z,81.69
2017-05-19T04:31:03.094Z,81.76
2017-05-19T04:31:24.837Z,81.93
2017-05-19T04:31:47.198Z,81.98
2017-05-19T04:32:08.921Z,82.10
2017-05-19T04:33:04.899Z,81.26
2017-05-19T04:33:26.668Z,81.03
2017-05-19T04:33:48.397Z,81.00
2017-05-19T04:34:10.176Z,80.78
2017-05-19T04:34:37.786Z,80.52
2017-05-19T04:34:59.521Z,80.28
2017-05-19T04:35:21.248Z,80.39
2017-05-19T04:35:43.046Z,80.62
2017-05-19T04:36:09.730Z,80.68
2017-05-19T04:36:36.450Z,80.55
2017-05-19T04:36:58.227Z,80.41
2017-05-19T04:37:20.017Z,80.46
2017-05-19T04:37:41.750Z,80.55
2017-05-19T04:38:03.536Z,80.43
2017-05-19T04:38:25.384Z,80.22
2017-05-19T04:38:47.217Z,80.06
2017-05-19T04:39:13.759Z,80.36
2017-05-19T04:39:35.468Z,80.62
2017-05-19T04:39:57.185Z,80.67
2017-05-19T04:40:18.893Z,80.44
2017-05-19T04:40:40.607Z,80.48
2017-05-19T04:41:02.374Z,80.23
2017-05-19T04:41:24.151Z,80.40
2017-05-19T04:41:45.951Z,80.49
2017-05-19T04:42:43.865Z,80.21
2017-05-19T04:43:13.152Z,80.23
2017-05-19T04:43:39.742Z,80.07
2017-05-19T04:44:01.503Z,79.84
2017-05-19T04:45:04.055Z,80.77
2017-05-19T04:45:30.615Z,81.42
2017-05-19T04:46:02.007Z,81.62
2017-05-19T04:46:28.382Z,81.58
2017-05-19T04:46:50.106Z,81.06
2017-05-19T04:47:11.817Z,81.12
2017-05-19T04:47:33.538Z,81.74
2017-05-19T04:47:55.382Z,81.86
2017-05-19T04:48:17.234Z,81.75
2017-05-19T04:49:23.366Z,81.87
2017-05-19T04:49:45.074Z,81.83
2017-05-19T04:50:10.394Z,82.35
2017-05-19T04:50:36.947Z,82.72
2017-05-19T04:51:01.693Z,82.60
2017-05-19T04:51:26.409Z,82.12
2017-05-19T04:51:48.172Z,81.89
2017-05-19T04:52:14.836Z,81.68
2017-05-19T04:52:36.749Z,81.03
2017-05-19T04:52:58.827Z,80.39
2017-05-19T04:53:20.874Z,80.93
2017-05-19T04:53:42.779Z,81.52
2017-05-19T04:54:09.592Z,81.58
2017-05-19T04:54:34.313Z,81.67
2017-05-19T04:54:56.019Z,81.79
2017-05-19T04:55:18.785Z,81.91
2017-05-19T04:55:46.303Z,81.55
2017-05-19T04:56:09.096Z,81.22
2017-05-19T04:56:35.700Z,81.73
2017-05-19T04:56:57.689Z,81.73
2017-05-19T04:57:19.658Z,81.84
2017-05-19T04:57:43.968Z,81.77
2017-05-19T04:58:06.861Z,81.44
2017-05-19T04:58:28.633Z,80.98
2017-05-19T04:58:50.403Z,81.19
2017-05-19T04:59:15.440Z,81.33
2017-05-19T05:00:23.989Z,82.71
2017-05-19T05:01:57.772Z,82.60
2017-05-19T05:03:47.742Z,81.49
2017-05-19T05:04:17.035Z,80.82
2017-05-19T05:05:15.680Z,81.21
2017-05-19T05:05:49.790Z,81.04
2017-05-19T05:06:13.072Z,81.31
2017-05-19T05:07:12.078Z,81.23
2017-05-19T05:07:37.080Z,80.93
2017-05-19T05:07:58.922Z,80.99
2017-05-19T05:08:25.434Z,81.53
2017-05-19T05:08:54.839Z,81.71
2017-05-19T05:09:17.233Z,81.85
2017-05-19T05:09:46.496Z,81.53
2017-05-19T05:10:16.264Z,81.20
2017-05-19T05:10:43.052Z,81.08
2017-05-19T05:11:37.544Z,81.13
2017-05-19T05:13:17.883Z,80.54
2017-05-19T05:14:13.995Z,80.06
2017-05-19T05:14:36.156Z,79.96
2017-05-19T05:14:58.037Z,80.02
2017-05-19T05:15:27.900Z,79.90
2017-05-19T05:15:54.370Z,79.95
2017-05-19T05:16:20.928Z,79.90
2017-05-19T05:16:52.164Z,80.09
2017-05-19T05:17:14.376Z,80.31
2017-05-19T05:18:10.875Z,80.06
2017-05-19T05:18:42.155Z,80.04
2017-05-19T05:19:06.727Z,80.38
2017-05-19T05:20:02.562Z,80.85
2017-05-19T05:21:12.833Z,80.93
2017-05-19T05:21:40.312Z,80.92
2017-05-19T05:22:08.024Z,81.27
2017-05-19T05:22:34.513Z,81.44
2017-05-19T05:22:59.878Z,81.65
2017-05-19T05:23:31.394Z,81.71
2017-05-19T05:24:02.601Z,81.84
2017-05-19T05:24:50.907Z,81.55
2017-05-19T05:25:20.440Z,81.50
2017-05-19T05:25:46.964Z,81.33
2017-05-19T05:26:08.868Z,81.00
2017-05-19T05:26:35.642Z,80.94
2017-05-19T05:27:02.687Z,81.34
2017-05-19T05:27:27.559Z,81.32
2017-05-19T05:27:54.097Z,81.30
2017-05-19T05:28:46.126Z,81.59
2017-05-19T05:29:08.473Z,81.64
2017-05-19T05:29:35.056Z,81.47
2017-05-19T05:30:40.928Z,81.13
2017-05-19T05:31:07.212Z,80.66
2017-05-19T05:31:33.759Z,80.81
2017-05-19T05:32:00.539Z,80.54
2017-05-19T05:32:31.817Z,80.47
2017-05-19T05:33:01.040Z,80.79
2017-05-19T05:34:01.796Z,81.15
2017-05-19T05:34:28.287Z,81.07
2017-05-19T05:34:54.789Z,80.80
2017-05-19T05:35:57.332Z,80.71
2017-05-19T05:36:23.820Z,80.76
2017-05-19T05:36:48.089Z,80.96
2017-05-19T05:37:19.305Z,81.39
2017-05-19T05:38:39.033Z,82.00
2017-05-19T05:39:10.141Z,82.03
2017-05-19T05:39:34.987Z,82.01
2017-05-19T05:40:54.723Z,82.23
2017-05-19T05:41:24.424Z,82.17
2017-05-19T05:41:55.685Z,82.35
2017-05-19T05:42:18.773Z,82.06
2017-05-19T05:42:50.046Z,82.22
2017-05-19T05:43:12.062Z,82.23
2017-05-19T05:43:41.478Z,81.92
2017-05-19T05:44:03.617Z,81.82
2017-05-19T05:44:25.373Z,81.79
2017-05-19T05:44:49.783Z,81.65
2017-05-19T05:45:20.992Z,81.55
2017-05-19T05:46:30.731Z,82.22
2017-05-19T05:46:55.519Z,82.33
2017-05-19T05:47:17.686Z,82.55
2017-05-19T05:47:44.443Z,82.40
2017-05-19T05:48:39.012Z,82.07